sensor_id;sensor_type;location;lat;lon;timestamp;temperature;humidity
47961;DHT22;33721;48.852;9.936;2022-11-18T00:00:52;7.90;99.90
47961;DHT22;33721;48.852;9.936;2022-11-18T00:03:18;7.90;99.90
47961;DHT22;33721;48.852;9.936;2022-11-18T00:05:54;7.80;99.90
47961;DHT22;33721;48.852;9.936;2022-11-18T00:08:21;7.80;99.90
47961;DHT22;33721;48.852;9.936;2022-11-18T00:10:47;7.80;99.90
47961;DHT22;33721;48.852;9.936;2022-11-18T00:13:12;7.80;99.90
47961;DHT22;33721;48.852;9.936;2022-11-18T00:16:08;7.80;99.90
47961;DHT22;33721;48.852;9.936;2022-11-18T00:18:34;7.90;99.90
47961;DHT22;33721;48.852;9.936;2022-11-18T00:21:04;7.80;99.90
47961;DHT22;33721;48.852;9.936;2022-11-18T00:23:30;7.80;99.90
47961;DHT22;33721;48.852;9.936;2022-11-18T00:26:10;7.80;99.90
47961;DHT22;33721;48.852;9.936;2022-11-18T00:28:37;7.70;99.90
47961;DHT22;33721;48.852;9.936;2022-11-18T00:31:11;7.70;99.90
47961;DHT22;33721;48.852;9.936;2022-11-18T00:33:37;7.70;99.90
47961;DHT22;33721;48.852;9.936;2022-11-18T00:36:04;7.70;99.90
47961;DHT22;33721;48.852;9.936;2022-11-18T00:38:30;7.70;99.90
47961;DHT22;33721;48.852;9.936;2022-11-18T00:41:04;7.70;99.90
47961;DHT22;33721;48.852;9.936;2022-11-18T00:43:30;7.70;99.90
47961;DHT22;33721;48.852;9.936;2022-11-18T00:45:57;7.70;99.90
47961;DHT22;33721;48.852;9.936;2022-11-18T00:48:23;7.70;99.90
47961;DHT22;33721;48.852;9.936;2022-11-18T00:50:54;7.70;99.90
47961;DHT22;33721;48.852;9.936;2022-11-18T00:53:22;7.70;99.90
47961;DHT22;33721;48.852;9.936;2022-11-18T00:55:48;7.70;99.90
47961;DHT22;33721;48.852;9.936;2022-11-18T00:58:14;7.60;99.90
47961;DHT22;33721;48.852;9.936;2022-11-18T01:00:44;7.60;99.90
47961;DHT22;33721;48.852;9.936;2022-11-18T01:03:11;7.50;99.90
47961;DHT22;33721;48.852;9.936;2022-11-18T01:05:37;7.50;99.90
47961;DHT22;33721;48.852;9.936;2022-11-18T01:08:04;7.50;99.90
47961;DHT22;33721;48.852;9.936;2022-11-18T01:10:30;7.50;99.90
47961;DHT22;33721;48.852;9.936;2022-11-18T01:12:56;7.50;99.90
47961;DHT22;33721;48.852;9.936;2022-11-18T01:15:42;7.50;99.90
47961;DHT22;33721;48.852;9.936;2022-11-18T01:18:08;7.50;99.90
47961;DHT22;33721;48.852;9.936;2022-11-18T01:20:35;7.50;99.90
47961;DHT22;33721;48.852;9.936;2022-11-18T01:23:01;7.50;99.90
47961;DHT22;33721;48.852;9.936;2022-11-18T01:25:27;7.50;99.90
47961;DHT22;33721;48.852;9.936;2022-11-18T01:27:53;7.50;99.90
47961;DHT22;33721;48.852;9.936;2022-11-18T01:30:19;7.60;99.90
47961;DHT22;33721;48.852;9.936;2022-11-18T01:32:45;7.60;99.90
47961;DHT22;33721;48.852;9.936;2022-11-18T01:35:11;7.60;99.90
47961;DHT22;33721;48.852;9.936;2022-11-18T01:37:37;7.70;99.90
47961;DHT22;33721;48.852;9.936;2022-11-18T01:40:04;7.60;99.90
47961;DHT22;33721;48.852;9.936;2022-11-18T01:42:30;7.60;99.90
47961;DHT22;33721;48.852;9.936;2022-11-18T01:47:46;7.50;99.90
47961;DHT22;33721;48.852;9.936;2022-11-18T01:50:15;7.50;99.90
47961;DHT22;33721;48.852;9.936;2022-11-18T01:52:42;7.50;99.90
47961;DHT22;33721;48.852;9.936;2022-11-18T01:55:20;7.60;99.90
47961;DHT22;33721;48.852;9.936;2022-11-18T01:57:49;7.60;99.90
47961;DHT22;33721;48.852;9.936;2022-11-18T02:00:16;7.60;99.90
47961;DHT22;33721;48.852;9.936;2022-11-18T02:02:42;7.60;99.90
47961;DHT22;33721;48.852;9.936;2022-11-18T02:05:10;7.70;99.90
47961;DHT22;33721;48.852;9.936;2022-11-18T02:07:41;7.60;99.90
47961;DHT22;33721;48.852;9.936;2022-11-18T02:10:08;7.60;99.90
47961;DHT22;33721;48.852;9.936;2022-11-18T02:12:35;7.60;99.90
47961;DHT22;33721;48.852;9.936;2022-11-18T02:15:01;7.60;99.90
47961;DHT22;33721;48.852;9.936;2022-11-18T02:22:56;7.70;99.90
47961;DHT22;33721;48.852;9.936;2022-11-18T02:31:10;7.60;99.90
47961;DHT22;33721;48.852;9.936;2022-11-18T02:36:20;7.60;99.90
47961;DHT22;33721;48.852;9.936;2022-11-18T02:39:16;7.60;99.90
47961;DHT22;33721;48.852;9.936;2022-11-18T02:41:46;7.60;99.90
47961;DHT22;33721;48.852;9.936;2022-11-18T02:44:16;7.60;99.90
47961;DHT22;33721;48.852;9.936;2022-11-18T02:46:44;7.60;99.90
47961;DHT22;33721;48.852;9.936;2022-11-18T02:49:34;7.60;99.90
47961;DHT22;33721;48.852;9.936;2022-11-18T02:52:03;7.50;99.90
47961;DHT22;33721;48.852;9.936;2022-11-18T02:54:29;7.50;99.90
47961;DHT22;33721;48.852;9.936;2022-11-18T02:56:57;7.50;99.90
47961;DHT22;33721;48.852;9.936;2022-11-18T02:59:23;7.50;99.90
47961;DHT22;33721;48.852;9.936;2022-11-18T03:01:52;7.50;99.90
47961;DHT22;33721;48.852;9.936;2022-11-18T03:04:18;7.50;99.90
47961;DHT22;33721;48.852;9.936;2022-11-18T03:06:55;7.50;99.90
47961;DHT22;33721;48.852;9.936;2022-11-18T03:09:34;7.50;99.90
47961;DHT22;33721;48.852;9.936;2022-11-18T03:18:00;7.40;99.90
47961;DHT22;33721;48.852;9.936;2022-11-18T03:20:47;7.40;99.90
47961;DHT22;33721;48.852;9.936;2022-11-18T03:23:41;7.40;99.90
47961;DHT22;33721;48.852;9.936;2022-11-18T03:26:16;7.40;99.90
47961;DHT22;33721;48.852;9.936;2022-11-18T03:31:47;7.30;99.90
47961;DHT22;33721;48.852;9.936;2022-11-18T03:34:35;7.30;99.90
47961;DHT22;33721;48.852;9.936;2022-11-18T03:37:05;7.30;99.90
47961;DHT22;33721;48.852;9.936;2022-11-18T03:39:35;7.30;99.90
47961;DHT22;33721;48.852;9.936;2022-11-18T03:44:38;7.30;99.90
47961;DHT22;33721;48.852;9.936;2022-11-18T03:47:09;7.30;99.90
47961;DHT22;33721;48.852;9.936;2022-11-18T03:49:51;7.30;99.90
47961;DHT22;33721;48.852;9.936;2022-11-18T03:52:21;7.30;99.90
47961;DHT22;33721;48.852;9.936;2022-11-18T03:54:51;7.30;99.90
47961;DHT22;33721;48.852;9.936;2022-11-18T03:57:22;7.30;99.90
47961;DHT22;33721;48.852;9.936;2022-11-18T04:00:02;7.30;99.90
47961;DHT22;33721;48.852;9.936;2022-11-18T04:02:30;7.30;99.90
47961;DHT22;33721;48.852;9.936;2022-11-18T04:04:56;7.30;99.90
47961;DHT22;33721;48.852;9.936;2022-11-18T04:07:42;7.40;99.90
47961;DHT22;33721;48.852;9.936;2022-11-18T04:10:15;7.40;99.90
47961;DHT22;33721;48.852;9.936;2022-11-18T04:12:45;7.40;99.90
47961;DHT22;33721;48.852;9.936;2022-11-18T04:15:11;7.40;99.90
47961;DHT22;33721;48.852;9.936;2022-11-18T04:17:40;7.30;99.90
47961;DHT22;33721;48.852;9.936;2022-11-18T04:20:13;7.30;99.90
47961;DHT22;33721;48.852;9.936;2022-11-18T04:22:41;7.30;99.90
47961;DHT22;33721;48.852;9.936;2022-11-18T04:25:07;7.30;99.90
47961;DHT22;33721;48.852;9.936;2022-11-18T04:27:32;7.30;99.90
47961;DHT22;33721;48.852;9.936;2022-11-18T04:29:58;7.20;99.90
47961;DHT22;33721;48.852;9.936;2022-11-18T04:32:23;7.20;99.90
47961;DHT22;33721;48.852;9.936;2022-11-18T04:34:49;7.20;99.90
47961;DHT22;33721;48.852;9.936;2022-11-18T04:37:15;7.20;99.90
47961;DHT22;33721;48.852;9.936;2022-11-18T04:39:40;7.20;99.90
47961;DHT22;33721;48.852;9.936;2022-11-18T04:42:06;7.10;99.90
47961;DHT22;33721;48.852;9.936;2022-11-18T04:44:33;7.10;99.90
47961;DHT22;33721;48.852;9.936;2022-11-18T04:47:04;7.20;99.90
47961;DHT22;33721;48.852;9.936;2022-11-18T04:49:30;7.10;99.90
47961;DHT22;33721;48.852;9.936;2022-11-18T04:51:56;7.10;99.90
47961;DHT22;33721;48.852;9.936;2022-11-18T04:54:23;7.10;99.90
47961;DHT22;33721;48.852;9.936;2022-11-18T04:56:49;7.00;99.90
47961;DHT22;33721;48.852;9.936;2022-11-18T04:59:17;7.00;99.90
47961;DHT22;33721;48.852;9.936;2022-11-18T05:01:43;7.00;99.90
47961;DHT22;33721;48.852;9.936;2022-11-18T05:04:12;6.90;99.90
47961;DHT22;33721;48.852;9.936;2022-11-18T05:06:38;6.90;99.90
47961;DHT22;33721;48.852;9.936;2022-11-18T05:09:04;6.90;99.90
47961;DHT22;33721;48.852;9.936;2022-11-18T05:11:31;6.90;99.90
47961;DHT22;33721;48.852;9.936;2022-11-18T05:14:14;6.90;99.90
47961;DHT22;33721;48.852;9.936;2022-11-18T05:16:40;7.00;99.90
47961;DHT22;33721;48.852;9.936;2022-11-18T05:19:07;6.90;99.90
47961;DHT22;33721;48.852;9.936;2022-11-18T05:21:32;6.90;99.90
47961;DHT22;33721;48.852;9.936;2022-11-18T05:23:59;6.90;99.90
47961;DHT22;33721;48.852;9.936;2022-11-18T05:26:25;6.80;99.90
47961;DHT22;33721;48.852;9.936;2022-11-18T05:28:51;6.70;99.90
47961;DHT22;33721;48.852;9.936;2022-11-18T05:31:17;6.70;99.90
47961;DHT22;33721;48.852;9.936;2022-11-18T05:33:44;6.70;99.90
47961;DHT22;33721;48.852;9.936;2022-11-18T05:36:12;6.60;99.90
47961;DHT22;33721;48.852;9.936;2022-11-18T05:38:39;6.70;99.90
47961;DHT22;33721;48.852;9.936;2022-11-18T05:41:05;6.70;99.90
47961;DHT22;33721;48.852;9.936;2022-11-18T05:43:31;6.60;99.90
47961;DHT22;33721;48.852;9.936;2022-11-18T05:45:58;6.60;99.90
47961;DHT22;33721;48.852;9.936;2022-11-18T05:48:24;6.60;99.90
47961;DHT22;33721;48.852;9.936;2022-11-18T05:50:51;6.60;99.90
47961;DHT22;33721;48.852;9.936;2022-11-18T05:53:19;6.60;99.90
47961;DHT22;33721;48.852;9.936;2022-11-18T05:58:48;6.50;99.90
47961;DHT22;33721;48.852;9.936;2022-11-18T06:01:25;6.40;99.90
47961;DHT22;33721;48.852;9.936;2022-11-18T06:03:52;6.40;99.90
47961;DHT22;33721;48.852;9.936;2022-11-18T06:06:19;6.40;99.90
47961;DHT22;33721;48.852;9.936;2022-11-18T06:08:53;6.40;99.90
47961;DHT22;33721;48.852;9.936;2022-11-18T06:11:21;6.40;99.90
47961;DHT22;33721;48.852;9.936;2022-11-18T06:14:10;6.30;99.90
47961;DHT22;33721;48.852;9.936;2022-11-18T06:16:38;6.30;99.90
47961;DHT22;33721;48.852;9.936;2022-11-18T06:19:06;6.30;99.90
47961;DHT22;33721;48.852;9.936;2022-11-18T06:21:32;6.30;99.90
47961;DHT22;33721;48.852;9.936;2022-11-18T06:23:58;6.30;99.90
47961;DHT22;33721;48.852;9.936;2022-11-18T06:26:24;6.30;99.90
47961;DHT22;33721;48.852;9.936;2022-11-18T06:28:50;6.30;99.90
47961;DHT22;33721;48.852;9.936;2022-11-18T06:31:15;6.30;99.90
47961;DHT22;33721;48.852;9.936;2022-11-18T06:33:42;6.30;99.90
47961;DHT22;33721;48.852;9.936;2022-11-18T06:36:08;6.30;99.90
47961;DHT22;33721;48.852;9.936;2022-11-18T06:38:33;6.30;99.90
47961;DHT22;33721;48.852;9.936;2022-11-18T06:41:00;6.30;99.90
47961;DHT22;33721;48.852;9.936;2022-11-18T06:43:26;6.40;99.90
47961;DHT22;33721;48.852;9.936;2022-11-18T06:46:07;6.40;99.90
47961;DHT22;33721;48.852;9.936;2022-11-18T06:48:52;6.30;99.90
47961;DHT22;33721;48.852;9.936;2022-11-18T06:51:18;6.30;99.90
47961;DHT22;33721;48.852;9.936;2022-11-18T06:53:44;6.30;99.90
47961;DHT22;33721;48.852;9.936;2022-11-18T06:56:12;6.30;99.90
47961;DHT22;33721;48.852;9.936;2022-11-18T06:58:38;6.30;99.90
47961;DHT22;33721;48.852;9.936;2022-11-18T07:04:05;6.30;99.90
47961;DHT22;33721;48.852;9.936;2022-11-18T07:06:33;6.30;99.90
47961;DHT22;33721;48.852;9.936;2022-11-18T07:09:00;6.30;99.90
47961;DHT22;33721;48.852;9.936;2022-11-18T07:11:26;6.30;99.90
47961;DHT22;33721;48.852;9.936;2022-11-18T07:13:52;6.30;99.90
47961;DHT22;33721;48.852;9.936;2022-11-18T07:16:21;6.30;99.90
47961;DHT22;33721;48.852;9.936;2022-11-18T07:18:49;6.30;99.90
47961;DHT22;33721;48.852;9.936;2022-11-18T07:21:17;6.30;99.90
47961;DHT22;33721;48.852;9.936;2022-11-18T07:23:43;6.30;99.90
47961;DHT22;33721;48.852;9.936;2022-11-18T07:26:09;6.30;99.90
47961;DHT22;33721;48.852;9.936;2022-11-18T07:28:35;6.30;99.90
47961;DHT22;33721;48.852;9.936;2022-11-18T07:33:27;6.30;99.90
47961;DHT22;33721;48.852;9.936;2022-11-18T07:35:53;6.40;99.90
47961;DHT22;33721;48.852;9.936;2022-11-18T07:38:18;6.40;99.90
47961;DHT22;33721;48.852;9.936;2022-11-18T07:40:44;6.40;99.90
47961;DHT22;33721;48.852;9.936;2022-11-18T07:43:09;6.40;99.90
47961;DHT22;33721;48.852;9.936;2022-11-18T07:45:35;6.50;99.90
47961;DHT22;33721;48.852;9.936;2022-11-18T07:48:00;6.50;99.90
47961;DHT22;33721;48.852;9.936;2022-11-18T07:50:26;6.50;99.90
47961;DHT22;33721;48.852;9.936;2022-11-18T07:52:55;6.50;99.90
47961;DHT22;33721;48.852;9.936;2022-11-18T07:55:21;6.50;99.90
47961;DHT22;33721;48.852;9.936;2022-11-18T07:57:46;6.50;99.90
47961;DHT22;33721;48.852;9.936;2022-11-18T08:00:12;6.50;99.90
47961;DHT22;33721;48.852;9.936;2022-11-18T08:02:38;6.50;99.90
47961;DHT22;33721;48.852;9.936;2022-11-18T08:05:04;6.50;99.90
47961;DHT22;33721;48.852;9.936;2022-11-18T08:07:30;6.50;99.90
47961;DHT22;33721;48.852;9.936;2022-11-18T08:09:55;6.50;99.90
47961;DHT22;33721;48.852;9.936;2022-11-18T08:12:21;6.50;99.90
47961;DHT22;33721;48.852;9.936;2022-11-18T08:14:46;6.50;99.90
47961;DHT22;33721;48.852;9.936;2022-11-18T08:17:12;6.50;99.90
47961;DHT22;33721;48.852;9.936;2022-11-18T08:19:38;6.60;99.90
47961;DHT22;33721;48.852;9.936;2022-11-18T08:22:03;6.60;99.90
47961;DHT22;33721;48.852;9.936;2022-11-18T08:24:29;6.60;99.90
47961;DHT22;33721;48.852;9.936;2022-11-18T08:26:54;6.60;99.90
47961;DHT22;33721;48.852;9.936;2022-11-18T08:29:20;6.70;99.90
47961;DHT22;33721;48.852;9.936;2022-11-18T08:31:46;6.70;99.90
47961;DHT22;33721;48.852;9.936;2022-11-18T08:34:11;6.70;99.90
47961;DHT22;33721;48.852;9.936;2022-11-18T08:36:38;6.70;99.90
47961;DHT22;33721;48.852;9.936;2022-11-18T08:39:06;6.70;99.90
47961;DHT22;33721;48.852;9.936;2022-11-18T08:41:40;6.80;99.90
47961;DHT22;33721;48.852;9.936;2022-11-18T08:44:06;6.80;99.90
47961;DHT22;33721;48.852;9.936;2022-11-18T08:46:32;6.80;99.90
47961;DHT22;33721;48.852;9.936;2022-11-18T08:48:58;6.80;99.90
47961;DHT22;33721;48.852;9.936;2022-11-18T08:51:25;6.80;99.90
47961;DHT22;33721;48.852;9.936;2022-11-18T08:53:51;6.80;99.90
47961;DHT22;33721;48.852;9.936;2022-11-18T08:56:18;6.90;99.90
47961;DHT22;33721;48.852;9.936;2022-11-18T08:58:45;6.90;99.90
47961;DHT22;33721;48.852;9.936;2022-11-18T09:01:11;6.90;99.90
47961;DHT22;33721;48.852;9.936;2022-11-18T09:03:37;6.90;99.90
47961;DHT22;33721;48.852;9.936;2022-11-18T09:06:24;6.90;99.90
47961;DHT22;33721;48.852;9.936;2022-11-18T09:08:51;7.00;99.90
47961;DHT22;33721;48.852;9.936;2022-11-18T09:11:19;6.90;99.90
47961;DHT22;33721;48.852;9.936;2022-11-18T09:13:46;7.00;99.90
47961;DHT22;33721;48.852;9.936;2022-11-18T09:16:12;7.00;99.90
47961;DHT22;33721;48.852;9.936;2022-11-18T09:18:37;7.00;99.90
47961;DHT22;33721;48.852;9.936;2022-11-18T09:21:06;7.10;99.90
47961;DHT22;33721;48.852;9.936;2022-11-18T09:23:34;7.10;99.90
47961;DHT22;33721;48.852;9.936;2022-11-18T09:26:02;7.10;99.90
47961;DHT22;33721;48.852;9.936;2022-11-18T09:28:29;7.00;99.90
47961;DHT22;33721;48.852;9.936;2022-11-18T09:30:54;7.00;99.90
47961;DHT22;33721;48.852;9.936;2022-11-18T09:33:21;7.00;99.90
47961;DHT22;33721;48.852;9.936;2022-11-18T09:35:46;7.00;99.90
47961;DHT22;33721;48.852;9.936;2022-11-18T09:38:12;7.00;99.90
47961;DHT22;33721;48.852;9.936;2022-11-18T09:41:03;7.00;99.90
47961;DHT22;33721;48.852;9.936;2022-11-18T09:48:45;6.90;99.90
47961;DHT22;33721;48.852;9.936;2022-11-18T09:51:36;6.90;99.90
47961;DHT22;33721;48.852;9.936;2022-11-18T09:54:03;6.90;99.90
47961;DHT22;33721;48.852;9.936;2022-11-18T09:56:28;6.80;99.90
47961;DHT22;33721;48.852;9.936;2022-11-18T09:58:54;6.80;99.90
47961;DHT22;33721;48.852;9.936;2022-11-18T10:01:21;6.80;99.90
47961;DHT22;33721;48.852;9.936;2022-11-18T10:03:46;6.70;99.90
47961;DHT22;33721;48.852;9.936;2022-11-18T10:06:27;6.70;99.90
47961;DHT22;33721;48.852;9.936;2022-11-18T10:17:55;6.70;99.90
47961;DHT22;33721;48.852;9.936;2022-11-18T10:23:13;6.80;99.90
47961;DHT22;33721;48.852;9.936;2022-11-18T10:25:39;6.80;99.90
47961;DHT22;33721;48.852;9.936;2022-11-18T10:28:24;6.80;99.90
47961;DHT22;33721;48.852;9.936;2022-11-18T10:30:51;6.80;99.90
47961;DHT22;33721;48.852;9.936;2022-11-18T10:35:44;6.80;99.90
47961;DHT22;33721;48.852;9.936;2022-11-18T10:38:16;6.80;99.90
47961;DHT22;33721;48.852;9.936;2022-11-18T10:46:31;6.80;99.90
47961;DHT22;33721;48.852;9.936;2022-11-18T10:51:46;6.80;99.90
47961;DHT22;33721;48.852;9.936;2022-11-18T10:59:49;6.90;99.90
47961;DHT22;33721;48.852;9.936;2022-11-18T11:02:22;7.00;99.90
47961;DHT22;33721;48.852;9.936;2022-11-18T11:04:54;7.00;99.90
47961;DHT22;33721;48.852;9.936;2022-11-18T11:07:32;7.10;99.90
47961;DHT22;33721;48.852;9.936;2022-11-18T11:12:33;7.20;99.90
47961;DHT22;33721;48.852;9.936;2022-11-18T11:15:05;7.20;99.90
47961;DHT22;33721;48.852;9.936;2022-11-18T11:17:55;7.20;99.90
47961;DHT22;33721;48.852;9.936;2022-11-18T11:20:41;7.20;99.90
47961;DHT22;33721;48.852;9.936;2022-11-18T11:23:11;7.30;99.90
47961;DHT22;33721;48.852;9.936;2022-11-18T11:25:56;7.30;99.90
47961;DHT22;33721;48.852;9.936;2022-11-18T11:50:57;7.40;99.90
47961;DHT22;33721;48.852;9.936;2022-11-18T11:56:57;7.40;99.90
47961;DHT22;33721;48.852;9.936;2022-11-18T11:59:44;7.40;99.90
47961;DHT22;33721;48.852;9.936;2022-11-18T12:04:54;7.40;99.90
47961;DHT22;33721;48.852;9.936;2022-11-18T12:07:28;7.50;99.90
47961;DHT22;33721;48.852;9.936;2022-11-18T12:13:20;7.50;99.90
47961;DHT22;33721;48.852;9.936;2022-11-18T12:21:05;7.60;99.90
47961;DHT22;33721;48.852;9.936;2022-11-18T12:23:32;7.60;99.90
47961;DHT22;33721;48.852;9.936;2022-11-18T12:26:08;7.60;99.90
47961;DHT22;33721;48.852;9.936;2022-11-18T12:28:42;7.70;99.90
47961;DHT22;33721;48.852;9.936;2022-11-18T12:33:55;7.70;99.90
47961;DHT22;33721;48.852;9.936;2022-11-18T12:38:54;7.80;99.90
47961;DHT22;33721;48.852;9.936;2022-11-18T12:44:32;7.80;99.90
47961;DHT22;33721;48.852;9.936;2022-11-18T12:47:02;7.90;99.90
47961;DHT22;33721;48.852;9.936;2022-11-18T12:51:58;8.10;99.90
47961;DHT22;33721;48.852;9.936;2022-11-18T12:57:02;8.20;99.90
47961;DHT22;33721;48.852;9.936;2022-11-18T12:59:34;8.20;99.90
47961;DHT22;33721;48.852;9.936;2022-11-18T13:02:02;8.20;99.90
47961;DHT22;33721;48.852;9.936;2022-11-18T13:04:28;8.30;99.90
47961;DHT22;33721;48.852;9.936;2022-11-18T13:06:54;8.30;99.90
47961;DHT22;33721;48.852;9.936;2022-11-18T13:09:23;8.20;99.90
47961;DHT22;33721;48.852;9.936;2022-11-18T13:22:56;9.00;99.90
47961;DHT22;33721;48.852;9.936;2022-11-18T13:25:41;8.90;99.90
47961;DHT22;33721;48.852;9.936;2022-11-18T13:28:27;8.80;99.90
47961;DHT22;33721;48.852;9.936;2022-11-18T13:33:45;8.60;99.90
47961;DHT22;33721;48.852;9.936;2022-11-18T13:36:26;8.50;99.90
47961;DHT22;33721;48.852;9.936;2022-11-18T13:39:00;8.50;99.90
47961;DHT22;33721;48.852;9.936;2022-11-18T13:41:27;8.60;99.90
47961;DHT22;33721;48.852;9.936;2022-11-18T13:44:17;8.70;99.90
47961;DHT22;33721;48.852;9.936;2022-11-18T13:46:45;8.80;99.90
47961;DHT22;33721;48.852;9.936;2022-11-18T13:49:18;8.80;99.90
47961;DHT22;33721;48.852;9.936;2022-11-18T13:51:46;8.60;99.90
47961;DHT22;33721;48.852;9.936;2022-11-18T13:54:19;8.50;99.90
47961;DHT22;33721;48.852;9.936;2022-11-18T13:56:45;8.50;99.90
47961;DHT22;33721;48.852;9.936;2022-11-18T13:59:17;8.40;99.90
47961;DHT22;33721;48.852;9.936;2022-11-18T14:01:46;8.40;99.90
47961;DHT22;33721;48.852;9.936;2022-11-18T14:04:20;8.30;99.90
47961;DHT22;33721;48.852;9.936;2022-11-18T14:06:47;8.30;99.90
47961;DHT22;33721;48.852;9.936;2022-11-18T14:09:17;8.30;99.90
47961;DHT22;33721;48.852;9.936;2022-11-18T14:11:55;8.30;99.90
47961;DHT22;33721;48.852;9.936;2022-11-18T14:14:30;8.30;99.90
47961;DHT22;33721;48.852;9.936;2022-11-18T14:19:41;8.20;99.90
47961;DHT22;33721;48.852;9.936;2022-11-18T14:22:25;8.10;99.90
47961;DHT22;33721;48.852;9.936;2022-11-18T14:24:55;8.10;99.90
47961;DHT22;33721;48.852;9.936;2022-11-18T14:29:58;8.10;99.90
47961;DHT22;33721;48.852;9.936;2022-11-18T14:32:25;8.10;99.90
47961;DHT22;33721;48.852;9.936;2022-11-18T14:35:00;8.10;99.90
47961;DHT22;33721;48.852;9.936;2022-11-18T14:37:26;8.00;99.90
47961;DHT22;33721;48.852;9.936;2022-11-18T14:39:56;8.00;99.90
47961;DHT22;33721;48.852;9.936;2022-11-18T14:42:23;8.00;99.90
47961;DHT22;33721;48.852;9.936;2022-11-18T14:44:49;8.00;99.90
47961;DHT22;33721;48.852;9.936;2022-11-18T14:47:23;8.00;99.90
47961;DHT22;33721;48.852;9.936;2022-11-18T14:49:50;7.90;99.90
47961;DHT22;33721;48.852;9.936;2022-11-18T14:52:16;7.80;99.90
47961;DHT22;33721;48.852;9.936;2022-11-18T14:54:42;7.80;99.90
47961;DHT22;33721;48.852;9.936;2022-11-18T14:57:11;7.70;99.90
47961;DHT22;33721;48.852;9.936;2022-11-18T14:59:38;7.70;99.90
47961;DHT22;33721;48.852;9.936;2022-11-18T15:02:04;7.70;99.90
47961;DHT22;33721;48.852;9.936;2022-11-18T15:04:29;7.70;99.90
47961;DHT22;33721;48.852;9.936;2022-11-18T15:06:55;7.70;99.90
47961;DHT22;33721;48.852;9.936;2022-11-18T15:09:20;7.60;99.90
47961;DHT22;33721;48.852;9.936;2022-11-18T15:11:46;7.60;99.90
47961;DHT22;33721;48.852;9.936;2022-11-18T15:14:12;7.60;99.90
47961;DHT22;33721;48.852;9.936;2022-11-18T15:16:37;7.60;99.90
47961;DHT22;33721;48.852;9.936;2022-11-18T15:19:04;7.60;99.90
47961;DHT22;33721;48.852;9.936;2022-11-18T15:21:30;7.60;99.90
47961;DHT22;33721;48.852;9.936;2022-11-18T15:23:56;7.50;99.90
47961;DHT22;33721;48.852;9.936;2022-11-18T15:26:33;7.50;99.90
47961;DHT22;33721;48.852;9.936;2022-11-18T15:29:00;7.60;99.90
47961;DHT22;33721;48.852;9.936;2022-11-18T15:31:26;7.50;99.90
47961;DHT22;33721;48.852;9.936;2022-11-18T15:33:52;7.50;99.90
47961;DHT22;33721;48.852;9.936;2022-11-18T15:38:46;7.50;99.90
47961;DHT22;33721;48.852;9.936;2022-11-18T15:43:46;7.50;99.90
47961;DHT22;33721;48.852;9.936;2022-11-18T15:46:14;7.50;99.90
47961;DHT22;33721;48.852;9.936;2022-11-18T15:48:40;7.40;99.90
47961;DHT22;33721;48.852;9.936;2022-11-18T15:51:06;7.40;99.90
47961;DHT22;33721;48.852;9.936;2022-11-18T15:53:32;7.30;99.90
47961;DHT22;33721;48.852;9.936;2022-11-18T15:58:55;7.30;99.90
47961;DHT22;33721;48.852;9.936;2022-11-18T16:01:21;7.30;99.90
47961;DHT22;33721;48.852;9.936;2022-11-18T16:03:46;7.30;99.90
47961;DHT22;33721;48.852;9.936;2022-11-18T16:06:12;7.30;99.90
47961;DHT22;33721;48.852;9.936;2022-11-18T16:08:38;7.30;99.90
47961;DHT22;33721;48.852;9.936;2022-11-18T16:11:04;7.30;99.90
47961;DHT22;33721;48.852;9.936;2022-11-18T16:13:48;7.30;99.90
47961;DHT22;33721;48.852;9.936;2022-11-18T16:16:21;7.20;99.90
47961;DHT22;33721;48.852;9.936;2022-11-18T16:18:47;7.20;99.90
47961;DHT22;33721;48.852;9.936;2022-11-18T16:21:13;7.20;99.90
47961;DHT22;33721;48.852;9.936;2022-11-18T16:23:39;7.20;99.90
47961;DHT22;33721;48.852;9.936;2022-11-18T16:26:04;7.20;99.90
47961;DHT22;33721;48.852;9.936;2022-11-18T16:28:30;7.10;99.90
47961;DHT22;33721;48.852;9.936;2022-11-18T16:30:56;7.10;99.90
47961;DHT22;33721;48.852;9.936;2022-11-18T16:33:40;7.10;99.90
47961;DHT22;33721;48.852;9.936;2022-11-18T16:36:06;7.00;99.90
47961;DHT22;33721;48.852;9.936;2022-11-18T16:38:31;7.00;99.90
47961;DHT22;33721;48.852;9.936;2022-11-18T16:40:58;6.90;99.90
47961;DHT22;33721;48.852;9.936;2022-11-18T16:43:24;7.00;99.90
47961;DHT22;33721;48.852;9.936;2022-11-18T16:45:54;6.90;99.90
47961;DHT22;33721;48.852;9.936;2022-11-18T16:48:20;6.90;99.90
47961;DHT22;33721;48.852;9.936;2022-11-18T16:51:21;6.90;99.90
47961;DHT22;33721;48.852;9.936;2022-11-18T16:53:51;6.90;99.90
47961;DHT22;33721;48.852;9.936;2022-11-18T16:56:21;6.90;99.90
47961;DHT22;33721;48.852;9.936;2022-11-18T16:58:47;6.90;99.90
47961;DHT22;33721;48.852;9.936;2022-11-18T17:01:14;6.80;99.90
47961;DHT22;33721;48.852;9.936;2022-11-18T17:03:40;6.80;99.90
47961;DHT22;33721;48.852;9.936;2022-11-18T17:06:06;6.80;99.90
47961;DHT22;33721;48.852;9.936;2022-11-18T17:08:35;6.80;99.90
47961;DHT22;33721;48.852;9.936;2022-11-18T17:11:06;6.80;99.90
47961;DHT22;33721;48.852;9.936;2022-11-18T17:13:32;6.80;99.90
47961;DHT22;33721;48.852;9.936;2022-11-18T17:15:57;6.80;99.90
47961;DHT22;33721;48.852;9.936;2022-11-18T17:18:23;6.80;99.90
47961;DHT22;33721;48.852;9.936;2022-11-18T17:20:49;6.80;99.90
47961;DHT22;33721;48.852;9.936;2022-11-18T17:23:14;6.80;99.90
47961;DHT22;33721;48.852;9.936;2022-11-18T17:25:41;6.80;99.90
47961;DHT22;33721;48.852;9.936;2022-11-18T17:28:08;6.80;99.90
47961;DHT22;33721;48.852;9.936;2022-11-18T17:30:33;6.80;99.90
47961;DHT22;33721;48.852;9.936;2022-11-18T17:32:59;6.80;99.90
47961;DHT22;33721;48.852;9.936;2022-11-18T17:35:24;6.80;99.90
47961;DHT22;33721;48.852;9.936;2022-11-18T17:37:50;6.80;99.90
47961;DHT22;33721;48.852;9.936;2022-11-18T17:40:16;6.90;99.90
47961;DHT22;33721;48.852;9.936;2022-11-18T17:42:41;6.90;99.90
47961;DHT22;33721;48.852;9.936;2022-11-18T17:45:07;6.90;99.90
47961;DHT22;33721;48.852;9.936;2022-11-18T17:47:33;7.00;99.90
47961;DHT22;33721;48.852;9.936;2022-11-18T17:49:59;7.00;99.90
47961;DHT22;33721;48.852;9.936;2022-11-18T17:52:24;7.00;99.90
47961;DHT22;33721;48.852;9.936;2022-11-18T17:54:50;7.10;99.90
47961;DHT22;33721;48.852;9.936;2022-11-18T17:57:15;7.10;99.90
47961;DHT22;33721;48.852;9.936;2022-11-18T17:59:41;7.00;99.90
47961;DHT22;33721;48.852;9.936;2022-11-18T18:02:09;7.00;99.90
47961;DHT22;33721;48.852;9.936;2022-11-18T18:04:35;7.00;99.90
47961;DHT22;33721;48.852;9.936;2022-11-18T18:07:01;7.00;99.90
47961;DHT22;33721;48.852;9.936;2022-11-18T18:09:27;6.90;99.90
47961;DHT22;33721;48.852;9.936;2022-11-18T18:11:52;6.90;99.90
47961;DHT22;33721;48.852;9.936;2022-11-18T18:14:18;6.90;99.90
47961;DHT22;33721;48.852;9.936;2022-11-18T18:16:46;6.80;99.90
47961;DHT22;33721;48.852;9.936;2022-11-18T18:19:17;6.80;99.90
47961;DHT22;33721;48.852;9.936;2022-11-18T18:21:44;6.80;99.90
47961;DHT22;33721;48.852;9.936;2022-11-18T18:24:10;6.70;99.90
47961;DHT22;33721;48.852;9.936;2022-11-18T18:26:37;6.70;99.90